Balikesir Edremit Korfez Airport Edremit TR
ICAO: LTFD
IATA: EDO
Category: Medium
Scheduled Services: Yes

Elevation: 50 ft
TransAlt. 10000 ft.

Airport Communications:
SAR:123.1
GND:121.9
TWR:119.7

LTFD Zoom In..

If you have problems with the map follow the link
https://www.worldairports.se/pages/airport.php?
ICAO=LTFD

Runways:

(A) RW 05 length 9843 ft width 148 ft
ILS 108.90 / hdg 50

(B) RW 23 length 9843 ft width 148 ft
---- / hdg 230

Location; LTFD
Day. 13 / Time. 20.42 Zulu
* QNH: 1021
* Temperature: 05° c. 41°f.
* Wind from: 090° Speed 07 kn.
Dewpoint: 02° c.
Visibility: 10 km or more.
Clouds: Scattered 3300 ft.
Clouds: Overcast 8000 ft.

LTFD 132042Z 09007KT 9999 SCT033 OVC080 05/02 Q1021 RERA RMK RWY23 07005KT


Wind From 090°
Speed 07 kn.

 
 
jpsmedia.com for Web Design worldairports.se 2018   terms of use